Time;durP1;ratioP1;P1;durP2;ratioP2;P2;SDS_P1;SDS_P2;PMS_P1;PMS_P2;Temp;Humidity;BMP_temperature;BMP_pressure;BME280_temperature;BME280_humidity;BME280_pressure;Samples;Min_cycle;Max_cycle;Signal;HPM_P1;HPM_P2
2021/06/10 00:00:54;;;;;;;8.40;7.80;;;19.50;99.90;;;;;;6274976;28;20365;-63
2021/06/10 00:03:58;;;;;;;8.17;7.57;;;19.60;99.90;;;;;;6274433;28;20684;-61
2021/06/10 00:07:01;;;;;;;9.00;8.20;;;19.60;99.90;;;;;;6274844;28;20243;-60
2021/06/10 00:10:06;;;;;;;10.07;8.50;;;19.70;99.90;;;;;;6274628;28;20223;-63
2021/06/10 00:13:09;;;;;;;8.90;8.20;;;19.70;99.90;;;;;;6274533;28;20234;-62
2021/06/10 00:16:12;;;;;;;8.97;8.10;;;19.60;99.90;;;;;;6274642;28;20223;-64
2021/06/10 00:19:17;;;;;;;9.90;8.90;;;19.50;99.90;;;;;;6274299;28;20235;-62
2021/06/10 00:22:20;;;;;;;8.87;8.17;;;19.40;99.90;;;;;;6274810;28;20254;-60
2021/06/10 00:25:23;;;;;;;10.50;9.43;;;19.30;99.90;;;;;;6274401;28;20247;-60
2021/06/10 00:28:26;;;;;;;9.80;9.00;;;19.30;99.90;;;;;;6274159;28;20246;-61
2021/06/10 00:31:28;;;;;;;10.50;9.37;;;19.10;99.90;;;;;;6273980;28;20231;-63
2021/06/10 00:34:33;;;;;;;10.43;9.43;;;19.10;99.90;;;;;;6274340;28;20234;-63
2021/06/10 00:37:35;;;;;;;10.23;9.17;;;19.00;99.90;;;;;;6274091;28;20239;-63
2021/06/10 00:40:38;;;;;;;10.40;9.50;;;19.10;99.90;;;;;;6274582;28;20231;-63
2021/06/10 00:43:41;;;;;;;9.50;8.53;;;19.10;99.90;;;;;;6274012;28;20223;-64
2021/06/10 00:46:44;;;;;;;10.30;9.37;;;19.20;99.90;;;;;;6274227;28;20242;-64
2021/06/10 00:49:48;;;;;;;10.47;9.10;;;19.20;99.90;;;;;;6273813;28;20231;-60
2021/06/10 00:52:53;;;;;;;10.67;9.77;;;19.20;99.90;;;;;;6274260;28;20227;-63
2021/06/10 00:55:58;;;;;;;9.67;8.87;;;19.20;99.90;;;;;;6274400;28;20229;-64
2021/06/10 00:59:00;;;;;;;9.43;8.67;;;19.30;99.90;;;;;;6274053;28;20239;-63
2021/06/10 01:02:04;;;;;;;9.67;8.97;;;19.20;99.90;;;;;;6274177;28;20228;-60
2021/06/10 01:05:10;;;;;;;10.37;9.53;;;19.30;99.90;;;;;;6273475;28;20227;-61
2021/06/10 01:08:22;;;;;;;10.30;9.40;;;19.30;99.90;;;;;;6274072;28;20227;-59
2021/06/10 01:11:32;;;;;;;10.20;9.30;;;19.20;99.90;;;;;;6273784;28;20250;-63
2021/06/10 01:14:40;;;;;;;10.07;9.13;;;19.30;99.90;;;;;;6273732;28;20242;-60
2021/06/10 01:17:47;;;;;;;10.20;9.27;;;19.30;99.90;;;;;;6273390;28;20227;-62
2021/06/10 01:20:54;;;;;;;8.90;8.20;;;19.20;99.90;;;;;;6273591;28;20259;-61
2021/06/10 01:24:08;;;;;;;10.33;9.33;;;19.30;99.90;;;;;;6273440;28;20254;-60
2021/06/10 01:27:27;;;;;;;9.50;8.67;;;19.30;99.90;;;;;;6278240;28;20250;-63
2021/06/10 01:30:35;;;;;;;9.87;9.07;;;19.30;99.90;;;;;;6278162;28;20228;-60
2021/06/10 01:33:41;;;;;;;7.90;7.20;;;19.30;99.90;;;;;;6278206;28;20212;-64
2021/06/10 01:36:46;;;;;;;9.97;9.17;;;19.30;99.90;;;;;;6278296;28;20223;-62
2021/06/10 01:39:50;;;;;;;9.67;8.87;;;19.40;99.90;;;;;;6278126;28;20246;-64
2021/06/10 01:42:57;;;;;;;9.43;8.63;;;19.40;99.90;;;;;;6277950;28;20266;-63
2021/06/10 01:46:00;;;;;;;10.17;9.17;;;19.50;99.90;;;;;;6278396;28;20227;-64
2021/06/10 01:49:06;;;;;;;9.90;9.10;;;19.50;99.90;;;;;;6277847;28;20235;-62
2021/06/10 01:52:09;;;;;;;10.10;9.30;;;19.50;99.90;;;;;;6278336;28;20247;-61
2021/06/10 01:55:16;;;;;;;9.87;9.00;;;19.50;99.90;;;;;;6277484;28;20238;-62
2021/06/10 01:58:20;;;;;;;10.63;9.63;;;19.50;99.90;;;;;;6277676;28;20227;-64
2021/06/10 02:01:24;;;;;;;9.97;9.07;;;19.50;99.90;;;;;;6277541;28;20231;-61
2021/06/10 02:04:27;;;;;;;11.30;9.90;;;19.60;99.90;;;;;;6277631;28;20243;-60
2021/06/10 02:07:30;;;;;;;9.97;9.17;;;19.60;99.90;;;;;;6277448;28;20580;-63
2021/06/10 02:10:33;;;;;;;9.73;8.70;;;19.60;99.90;;;;;;6277426;28;20746;-63
2021/06/10 02:13:40;;;;;;;9.77;8.97;;;19.60;99.90;;;;;;6276989;28;20601;-62
2021/06/10 02:16:43;;;;;;;10.43;9.53;;;19.70;99.90;;;;;;6277485;28;20554;-61
2021/06/10 02:19:48;;;;;;;10.43;9.63;;;19.60;99.90;;;;;;6276989;28;20236;-60
2021/06/10 02:22:51;;;;;;;9.60;8.80;;;19.60;99.90;;;;;;6277311;28;20236;-62
2021/06/10 02:25:54;;;;;;;11.07;9.27;;;19.50;99.90;;;;;;6276934;28;20259;-59
2021/06/10 02:28:58;;;;;;;10.43;9.63;;;19.50;99.90;;;;;;6276764;28;20231;-58
2021/06/10 02:32:03;;;;;;;9.43;8.73;;;19.50;99.90;;;;;;6277399;28;20539;-63
2021/06/10 02:35:08;;;;;;;8.70;8.00;;;19.50;99.90;;;;;;6276680;28;20227;-62
2021/06/10 02:38:14;;;;;;;10.03;9.23;;;19.50;99.90;;;;;;6276644;28;20319;-62
2021/06/10 02:41:17;;;;;;;8.83;7.93;;;19.50;99.90;;;;;;6267324;28;20565;-60
2021/06/10 02:44:26;;;;;;;9.83;9.03;;;19.50;99.90;;;;;;6276759;28;20246;-62
2021/06/10 02:47:28;;;;;;;9.13;8.33;;;19.50;99.90;;;;;;6276090;28;20246;-61
2021/06/10 02:50:32;;;;;;;9.53;8.73;;;19.50;99.90;;;;;;6276466;28;20669;-62
2021/06/10 02:53:36;;;;;;;9.27;8.47;;;19.40;99.90;;;;;;6276203;28;20232;-63
2021/06/10 02:56:41;;;;;;;9.90;9.00;;;19.50;99.90;;;;;;6276224;28;20677;-64
2021/06/10 02:59:47;;;;;;;8.33;7.53;;;19.40;99.90;;;;;;6275962;28;20231;-60
2021/06/10 03:02:50;;;;;;;9.90;9.10;;;19.40;99.90;;;;;;6276265;28;20239;-59
2021/06/10 03:05:56;;;;;;;9.23;8.43;;;19.40;99.90;;;;;;6275723;28;20345;-59
2021/06/10 03:09:00;;;;;;;10.20;9.30;;;19.30;99.90;;;;;;6276317;28;20228;-63
2021/06/10 03:12:08;;;;;;;10.50;9.70;;;19.30;99.90;;;;;;6275730;28;20232;-63
2021/06/10 03:15:14;;;;;;;8.90;8.20;;;19.30;99.90;;;;;;6275621;28;20228;-60
2021/06/10 03:18:18;;;;;;;11.47;10.40;;;19.30;99.90;;;;;;6275515;28;20569;-60
2021/06/10 03:21:21;;;;;;;11.03;10.13;;;19.30;99.90;;;;;;6275547;28;20249;-60
2021/06/10 03:24:25;;;;;;;10.87;9.90;;;19.30;99.90;;;;;;6275670;28;20561;-63
2021/06/10 03:27:30;;;;;;;10.33;9.30;;;19.30;99.90;;;;;;6275329;28;20750;-64
2021/06/10 03:30:36;;;;;;;11.53;10.53;;;19.30;99.90;;;;;;6275377;28;20218;-62
2021/06/10 03:33:39;;;;;;;10.10;9.30;;;19.30;99.90;;;;;;6275298;28;20652;-63
2021/06/10 03:36:43;;;;;;;10.40;9.53;;;19.20;99.90;;;;;;6275540;28;20228;-60
2021/06/10 03:39:47;;;;;;;10.77;9.97;;;19.20;99.90;;;;;;6275015;28;20231;-62
2021/06/10 03:42:51;;;;;;;11.63;10.53;;;19.10;99.90;;;;;;6270976;28;20203;-62
2021/06/10 03:45:57;;;;;;;10.00;9.20;;;19.20;99.90;;;;;;6274897;28;20568;-61
2021/06/10 03:48:59;;;;;;;10.53;9.43;;;19.20;99.90;;;;;;6274741;28;20235;-62
2021/06/10 03:52:03;;;;;;;10.10;9.10;;;19.20;99.90;;;;;;6275057;28;20234;-63
2021/06/10 03:55:08;;;;;;;11.63;9.60;;;19.20;99.90;;;;;;6275224;28;20219;-63
2021/06/10 03:58:10;;;;;;;10.90;9.77;;;19.20;99.90;;;;;;6274494;28;20228;-63
2021/06/10 04:01:14;;;;;;;11.03;10.00;;;19.20;99.90;;;;;;6275163;28;20244;-60
2021/06/10 04:04:17;;;;;;;9.93;8.60;;;19.20;99.90;;;;;;6274382;28;20227;-63
2021/06/10 04:07:20;;;;;;;9.40;8.60;;;19.20;99.90;;;;;;6274645;28;20232;-59
2021/06/10 04:10:25;;;;;;;10.67;9.60;;;19.30;99.90;;;;;;6274528;28;20707;-60
2021/06/10 04:13:28;;;;;;;9.60;8.80;;;19.20;99.90;;;;;;6274787;28;20231;-60
2021/06/10 04:16:35;;;;;;;10.40;9.40;;;19.10;99.90;;;;;;6274693;28;20232;-62
2021/06/10 04:19:38;;;;;;;10.03;9.13;;;19.10;99.90;;;;;;6274156;28;20689;-63
2021/06/10 04:22:41;;;;;;;9.73;8.83;;;19.20;99.90;;;;;;6274333;28;20250;-60
2021/06/10 04:25:49;;;;;;;10.80;9.80;;;19.20;99.90;;;;;;6274298;28;20242;-60
2021/06/10 04:28:52;;;;;;;9.97;9.20;;;19.30;99.90;;;;;;6274022;28;20240;-60
2021/06/10 04:31:56;;;;;;;9.50;8.70;;;19.40;99.90;;;;;;6274219;28;20247;-63
2021/06/10 04:35:01;;;;;;;9.20;8.50;;;19.50;99.90;;;;;;6274311;28;20223;-62
2021/06/10 04:38:12;;;;;;;9.83;9.03;;;19.50;99.90;;;;;;6273784;28;20238;-63
2021/06/10 04:41:15;;;;;;;9.93;9.07;;;19.60;99.90;;;;;;6274171;28;20231;-62
2021/06/10 04:44:18;;;;;;;9.60;8.80;;;19.70;99.90;;;;;;6273897;28;20232;-62
2021/06/10 04:47:25;;;;;;;9.77;8.80;;;19.80;99.90;;;;;;6273956;28;20248;-63
2021/06/10 04:50:28;;;;;;;9.63;8.73;;;19.80;99.90;;;;;;6273467;28;20231;-63
2021/06/10 04:53:34;;;;;;;9.90;9.00;;;19.90;99.90;;;;;;6273904;28;20227;-63
2021/06/10 04:56:36;;;;;;;10.37;9.57;;;19.90;99.90;;;;;;6273944;28;20235;-61
2021/06/10 04:59:41;;;;;;;9.70;8.70;;;19.80;99.90;;;;;;6276884;28;20231;-64
2021/06/10 05:02:45;;;;;;;8.83;8.07;;;19.80;99.90;;;;;;6278625;28;20250;-64
2021/06/10 05:05:48;;;;;;;9.87;9.07;;;19.80;99.90;;;;;;6278914;28;20306;-64
2021/06/10 05:08:51;;;;;;;9.50;8.80;;;19.80;99.90;;;;;;6278595;28;20224;-58
2021/06/10 05:11:54;;;;;;;10.83;10.03;;;19.80;99.90;;;;;;6278869;28;20238;-61
2021/06/10 05:14:56;;;;;;;9.70;8.80;;;19.90;99.90;;;;;;6279023;28;20234;-59
2021/06/10 05:18:01;;;;;;;9.00;8.27;;;19.80;99.90;;;;;;6278754;28;20231;-64
2021/06/10 05:21:04;;;;;;;9.70;8.90;;;19.80;99.90;;;;;;6278377;28;20669;-63
2021/06/10 05:24:09;;;;;;;9.10;8.40;;;19.90;99.90;;;;;;6277861;28;20227;-62
2021/06/10 05:27:13;;;;;;;9.10;8.20;;;19.80;99.90;;;;;;6278279;28;20232;-62
2021/06/10 05:30:17;;;;;;;10.13;9.23;;;19.90;99.90;;;;;;6277937;28;20223;-64
2021/06/10 05:33:21;;;;;;;10.67;9.67;;;19.90;99.90;;;;;;6278151;28;20246;-60
2021/06/10 05:36:24;;;;;;;9.50;8.50;;;19.90;99.90;;;;;;6277469;28;20569;-59
2021/06/10 05:39:27;;;;;;;9.30;8.60;;;20.00;99.90;;;;;;6278125;28;20240;-58
2021/06/10 05:42:30;;;;;;;9.20;8.50;;;20.00;99.90;;;;;;6277854;28;20224;-59
2021/06/10 05:45:32;;;;;;;10.43;9.53;;;20.00;99.90;;;;;;6278330;28;20228;-64
2021/06/10 05:48:37;;;;;;;11.67;10.30;;;20.00;99.90;;;;;;6273225;28;20219;-63
2021/06/10 05:51:40;;;;;;;9.97;9.13;;;20.10;99.90;;;;;;6277931;28;20196;-60
2021/06/10 05:54:53;;;;;;;9.57;8.67;;;20.20;99.90;;;;;;6278192;28;20213;-59
2021/06/10 05:57:56;;;;;;;9.30;8.50;;;20.20;99.90;;;;;;6277679;28;20245;-61
2021/06/10 06:01:08;;;;;;;9.97;9.07;;;20.20;99.90;;;;;;6277543;28;20227;-63
2021/06/10 06:04:12;;;;;;;9.53;8.63;;;20.30;99.90;;;;;;6277421;28;20223;-62
2021/06/10 06:07:18;;;;;;;9.33;8.07;;;20.30;99.90;;;;;;6277531;28;20239;-61
2021/06/10 06:10:21;;;;;;;9.60;8.47;;;20.40;99.90;;;;;;6276304;28;20242;-61
2021/06/10 06:13:43;;;;;;;9.30;8.40;;;20.50;99.90;;;;;;6276471;28;20258;-61
2021/06/10 06:17:01;;;;;;;9.80;8.97;;;20.50;99.90;;;;;;6276211;28;20637;-61
2021/06/10 06:20:07;;;;;;;9.97;9.03;;;20.50;99.90;;;;;;6273714;28;20228;-65
2021/06/10 06:23:13;;;;;;;10.73;9.70;;;20.40;99.90;;;;;;6276210;28;20231;-63
2021/06/10 06:26:16;;;;;;;10.00;8.87;;;20.50;99.90;;;;;;6276312;28;20230;-63
2021/06/10 06:29:19;;;;;;;9.30;8.50;;;20.50;99.90;;;;;;6275445;28;20680;-60
2021/06/10 06:32:21;;;;;;;9.30;8.50;;;20.70;99.90;;;;;;6275788;28;20242;-59
2021/06/10 06:35:26;;;;;;;10.10;8.70;;;20.70;99.90;;;;;;6275819;28;20242;-64
2021/06/10 06:38:29;;;;;;;9.43;8.53;;;20.60;99.90;;;;;;6278766;28;20227;-64
2021/06/10 06:41:36;;;;;;;9.60;8.70;;;20.60;99.90;;;;;;6276688;28;20669;-63
2021/06/10 06:44:39;;;;;;;10.40;9.40;;;21.00;99.90;;;;;;6276897;28;20243;-63
2021/06/10 06:47:42;;;;;;;9.20;8.40;;;21.80;99.90;;;;;;6276416;28;20673;-65
2021/06/10 06:50:46;;;;;;;8.27;7.67;;;22.40;98.60;;;;;;6272050;28;20236;-63
2021/06/10 06:54:03;;;;;;;9.97;8.73;;;22.80;97.30;;;;;;6276190;28;20238;-65
2021/06/10 06:57:06;;;;;;;9.23;8.53;;;23.00;96.50;;;;;;6276600;28;20669;-64
2021/06/10 07:00:10;;;;;;;8.90;8.20;;;23.20;95.80;;;;;;6276055;28;20231;-64
2021/06/10 07:03:12;;;;;;;9.60;8.80;;;23.20;95.60;;;;;;6276491;28;20576;-63
2021/06/10 07:06:17;;;;;;;9.50;8.60;;;23.20;95.30;;;;;;6275738;28;20581;-63
2021/06/10 07:09:20;;;;;;;10.30;9.03;;;23.30;94.60;;;;;;6276068;28;20227;-63
2021/06/10 07:12:27;;;;;;;10.40;8.30;;;23.40;93.80;;;;;;6275825;28;20242;-63
2021/06/10 07:15:39;;;;;;;9.10;8.30;;;23.50;93.30;;;;;;6275795;28;20231;-64
2021/06/10 07:18:42;;;;;;;9.97;9.17;;;23.60;93.40;;;;;;6299655;28;20298;-64
2021/06/10 07:21:48;;;;;;;9.87;9.10;;;23.70;92.80;;;;;;6298382;28;20230;-64
2021/06/10 07:25:03;;;;;;;8.53;7.93;;;23.60;91.60;;;;;;6274970;28;20235;-63
2021/06/10 07:28:06;;;;;;;8.60;7.80;;;23.60;91.90;;;;;;6275332;28;20235;-63
2021/06/10 07:31:12;;;;;;;9.53;8.73;;;23.70;91.60;;;;;;6275676;28;20227;-59
2021/06/10 07:34:15;;;;;;;9.50;8.70;;;23.80;91.50;;;;;;6275767;28;20240;-61
2021/06/10 07:37:19;;;;;;;9.43;8.63;;;24.00;91.10;;;;;;6275718;28;20239;-61
2021/06/10 07:40:23;;;;;;;8.70;7.87;;;24.00;90.50;;;;;;6275397;28;20235;-62
2021/06/10 07:43:29;;;;;;;8.17;7.47;;;24.00;90.30;;;;;;6275473;28;20227;-62
2021/06/10 07:46:31;;;;;;;8.70;7.87;;;24.20;89.70;;;;;;6274753;28;20577;-64
2021/06/10 07:49:57;;;;;;;8.07;7.50;;;24.80;89.00;;;;;;6275095;28;20235;-63
2021/06/10 07:53:02;;;;;;;9.70;9.00;;;25.10;85.80;;;;;;6270585;28;20247;-63
2021/06/10 07:56:05;;;;;;;8.97;8.00;;;25.50;87.00;;;;;;6275230;28;20241;-64
2021/06/10 07:59:10;;;;;;;8.37;7.77;;;26.00;84.00;;;;;;6274894;28;20222;-60
2021/06/10 08:02:25;;;;;;;9.53;8.60;;;26.10;80.70;;;;;;6275165;28;20230;-64
2021/06/10 08:05:29;;;;;;;9.60;8.80;;;26.10;80.00;;;;;;6274929;28;20234;-63
2021/06/10 08:08:40;;;;;;;8.67;7.97;;;26.00;80.60;;;;;;6274750;28;20241;-63
2021/06/10 08:11:45;;;;;;;9.23;8.53;;;25.80;82.10;;;;;;6274761;28;20692;-64
2021/06/10 08:14:48;;;;;;;10.47;9.50;;;25.70;82.00;;;;;;6274841;28;20245;-60
2021/06/10 08:17:51;;;;;;;10.60;9.60;;;25.60;82.00;;;;;;6274350;28;20230;-59
2021/06/10 08:21:06;;;;;;;9.87;8.93;;;25.60;82.00;;;;;;6274319;28;20677;-64
2021/06/10 08:24:11;;;;;;;9.27;8.57;;;25.80;81.60;;;;;;6274397;28;20227;-64
2021/06/10 08:27:14;;;;;;;9.17;8.47;;;26.00;81.60;;;;;;6274201;28;20231;-64
2021/06/10 08:30:18;;;;;;;10.27;9.43;;;26.10;79.40;;;;;;6274373;28;20703;-64
2021/06/10 08:33:22;;;;;;;9.70;8.90;;;26.00;79.90;;;;;;6274116;28;20313;-64
2021/06/10 08:36:24;;;;;;;9.50;8.60;;;25.90;80.60;;;;;;6273741;28;20609;-58
2021/06/10 08:39:28;;;;;;;10.30;9.50;;;26.00;78.60;;;;;;6274246;28;20235;-59
2021/06/10 08:42:36;;;;;;;9.33;8.53;;;26.10;78.00;;;;;;6273944;28;20573;-63
2021/06/10 08:45:44;;;;;;;9.90;9.20;;;26.20;76.80;;;;;;6299401;28;20221;-61
2021/06/10 08:48:49;;;;;;;9.00;8.30;;;26.50;74.70;;;;;;6297005;28;20240;-60
2021/06/10 08:55:13;;;;;;;10.20;9.40;;;26.70;71.10;;;;;;6254767;28;20678;-59
2021/06/10 08:58:16;;;;;;;10.63;9.73;;;26.70;71.10;;;;;;6274276;28;20328;-58
2021/06/10 09:01:19;;;;;;;8.80;8.20;;;26.70;73.40;;;;;;6273587;28;20238;-60
2021/06/10 09:04:22;;;;;;;9.07;8.37;;;26.90;71.90;;;;;;6274030;28;20230;-64
2021/06/10 09:07:33;;;;;;;8.43;7.73;;;26.90;70.80;;;;;;6273225;28;20664;-64
2021/06/10 09:10:39;;;;;;;7.80;7.30;;;27.20;68.80;;;;;;6273442;28;20223;-62
2021/06/10 09:13:45;;;;;;;8.47;7.87;;;27.60;65.20;;;;;;6273550;28;20226;-63
2021/06/10 09:16:53;;;;;;;8.80;8.20;;;28.00;63.60;;;;;;6273742;28;20235;-62
2021/06/10 09:19:57;;;;;;;8.30;7.60;;;27.90;62.60;;;;;;6273695;28;20231;-63
2021/06/10 09:23:17;;;;;;;7.40;6.90;;;27.80;59.40;;;;;;6273790;28;20634;-64
2021/06/10 09:26:23;;;;;;;7.93;7.40;;;27.20;61.10;;;;;;6273644;28;20226;-62
2021/06/10 09:33:12;;;;;;;8.23;7.63;;;28.00;59.80;;;;;;6272482;28;20227;-62
2021/06/10 09:36:20;;;;;;;7.47;6.87;;;28.40;58.90;;;;;;6273586;28;20238;-63
2021/06/10 09:39:26;;;;;;;8.33;7.63;;;28.60;58.00;;;;;;6273230;28;20708;-61
2021/06/10 09:42:33;;;;;;;8.40;7.70;;;28.60;58.80;;;;;;6273370;28;20227;-60
2021/06/10 09:45:40;;;;;;;8.13;7.53;;;28.50;59.10;;;;;;6298897;28;20352;-60
2021/06/10 09:49:07;;;;;;;8.33;7.70;;;28.60;58.00;;;;;;6303283;28;20323;-63
2021/06/10 09:52:10;;;;;;;8.33;7.73;;;28.80;58.40;;;;;;6302499;28;20679;-60
2021/06/10 09:55:31;;;;;;;8.23;7.63;;;29.20;59.00;;;;;;6302898;28;20245;-63
2021/06/10 09:58:38;;;;;;;8.70;7.90;;;29.10;58.30;;;;;;6302429;28;20564;-63
2021/06/10 10:01:42;;;;;;;8.80;8.20;;;29.10;57.80;;;;;;6302294;28;20234;-64
2021/06/10 10:05:05;;;;;;;6.93;6.53;;;28.60;61.20;;;;;;6302380;28;20567;-66
2021/06/10 10:08:14;;;;;;;7.53;6.93;;;28.50;63.70;;;;;;6302183;28;20226;-63
2021/06/10 10:11:17;;;;;;;7.20;6.70;;;28.10;61.60;;;;;;6302906;28;20233;-61
2021/06/10 10:14:27;;;;;;;7.30;6.70;;;27.90;61.70;;;;;;6302131;28;20237;-63
2021/06/10 10:17:36;;;;;;;7.03;6.50;;;27.90;60.70;;;;;;6302032;28;20254;-64
2021/06/10 10:20:40;;;;;;;6.93;6.30;;;27.60;59.60;;;;;;6301692;28;20233;-64
2021/06/10 10:23:48;;;;;;;6.67;6.20;;;27.50;59.90;;;;;;6302169;28;20238;-62
2021/06/10 10:26:51;;;;;;;6.40;5.90;;;27.40;60.60;;;;;;6301653;28;20325;-60
2021/06/10 10:30:03;;;;;;;7.00;6.50;;;27.20;60.40;;;;;;6301523;28;20244;-60
2021/06/10 10:33:16;;;;;;;8.43;7.60;;;27.00;65.70;;;;;;6301417;28;20230;-60
2021/06/10 10:36:25;;;;;;;8.23;7.53;;;26.60;71.30;;;;;;6301641;28;20233;-62
2021/06/10 10:39:37;;;;;;;8.57;7.87;;;26.20;70.90;;;;;;6301469;28;20237;-62
2021/06/10 10:42:40;;;;;;;8.17;7.50;;;26.10;71.40;;;;;;6277428;28;20239;-60
2021/06/10 10:46:04;;;;;;;8.37;7.67;;;26.30;72.70;;;;;;6276497;28;20203;-60
2021/06/10 10:49:25;;;;;;;7.33;6.70;;;26.50;74.60;;;;;;6276409;28;20223;-61
2021/06/10 10:52:53;;;;;;;7.20;6.67;;;27.00;76.10;;;;;;6276322;28;20242;-62
2021/06/10 10:56:05;;;;;;;8.67;7.97;;;27.50;71.30;;;;;;6248253;28;20237;-64
2021/06/10 10:59:14;;;;;;;8.17;7.67;;;27.70;71.30;;;;;;6276551;28;20231;-63
2021/06/10 11:02:28;;;;;;;6.93;6.50;;;27.60;70.80;;;;;;6275992;28;20250;-63
2021/06/10 11:05:32;;;;;;;8.23;7.60;;;27.20;70.30;;;;;;6276250;28;20231;-64
2021/06/10 11:09:14;;;;;;;7.87;7.27;;;27.00;70.40;;;;;;6275698;28;20337;-63
2021/06/10 11:12:54;;;;;;;7.00;6.50;;;26.80;71.10;;;;;;6276211;28;20235;-63
2021/06/10 11:16:03;;;;;;;6.87;6.40;;;26.50;71.70;;;;;;6300838;28;20353;-63
2021/06/10 11:19:22;;;;;;;6.67;6.17;;;26.60;72.40;;;;;;6300316;28;20555;-63
2021/06/10 11:22:38;;;;;;;7.77;7.17;;;26.70;73.20;;;;;;6300741;28;20707;-63
2021/06/10 11:25:44;;;;;;;6.97;6.47;;;26.90;74.00;;;;;;6300525;28;20230;-63
2021/06/10 11:29:01;;;;;;;7.20;6.60;;;27.00;68.00;;;;;;6299944;28;20238;-64
2021/06/10 11:32:29;;;;;;;8.20;7.60;;;27.50;70.80;;;;;;6299909;28;20552;-64
2021/06/10 11:35:36;;;;;;;7.73;6.93;;;27.80;67.30;;;;;;6300231;28;20226;-64
2021/06/10 11:38:41;;;;;;;7.33;6.70;;;28.10;66.90;;;;;;6300079;28;20245;-63
2021/06/10 11:41:44;;;;;;;6.90;6.27;;;28.40;63.80;;;;;;6299799;28;20223;-63
2021/06/10 11:44:48;;;;;;;7.87;7.27;;;28.90;63.10;;;;;;6300128;28;20230;-63
2021/06/10 11:47:50;;;;;;;5.70;5.30;;;29.00;60.20;;;;;;6300084;28;20537;-63
2021/06/10 11:50:55;;;;;;;6.10;5.57;;;29.00;59.50;;;;;;6299734;28;20218;-64
2021/06/10 11:54:05;;;;;;;6.27;5.87;;;29.00;58.00;;;;;;6299966;28;20245;-63
2021/06/10 11:57:08;;;;;;;5.93;5.53;;;29.00;57.50;;;;;;6299551;28;20230;-64
2021/06/10 12:00:12;;;;;;;6.33;5.93;;;28.80;57.60;;;;;;6299859;28;20230;-64
2021/06/10 12:03:16;;;;;;;6.57;6.07;;;28.50;57.90;;;;;;6272551;28;20245;-64
2021/06/10 12:06:20;;;;;;;6.77;6.27;;;27.80;59.50;;;;;;6274713;28;20707;-64
2021/06/10 12:09:23;;;;;;;10.20;9.30;;;27.90;60.00;;;;;;6274061;28;20237;-64
2021/06/10 12:12:33;;;;;;;9.00;8.27;;;27.90;59.40;;;;;;6274492;28;20531;-63
2021/06/10 12:15:44;;;;;;;8.27;7.57;;;27.70;59.70;;;;;;6273871;28;20222;-63
2021/06/10 12:18:49;;;;;;;10.73;9.83;;;27.50;62.80;;;;;;6274674;28;20219;-63
2021/06/10 12:22:03;;;;;;;9.10;8.30;;;27.10;63.60;;;;;;6274247;28;20211;-64
2021/06/10 12:25:24;;;;;;;8.10;7.40;;;26.80;64.50;;;;;;6275069;28;20219;-63
2021/06/10 12:28:34;;;;;;;7.90;7.20;;;26.40;71.20;;;;;;6273566;28;20242;-62
2021/06/10 12:31:38;;;;;;;7.63;7.00;;;25.70;76.30;;;;;;6274288;28;20247;-63
2021/06/10 12:34:53;;;;;;;8.50;7.70;;;25.20;81.60;;;;;;6273840;28;20712;-63
2021/06/10 12:37:57;;;;;;;9.80;8.80;;;25.00;84.10;;;;;;6274402;28;20235;-62
2021/06/10 12:41:16;;;;;;;8.60;7.80;;;24.80;87.30;;;;;;6274211;28;20231;-63
2021/06/10 12:44:20;;;;;;;8.77;8.00;;;24.60;88.60;;;;;;6274412;28;20242;-63
2021/06/10 12:47:32;;;;;;;9.03;8.20;;;24.40;90.20;;;;;;6273840;28;20232;-63
2021/06/10 12:50:34;;;;;;;7.83;7.23;;;24.20;91.30;;;;;;6274164;28;20265;-63
2021/06/10 12:53:56;;;;;;;8.00;7.20;;;24.00;91.80;;;;;;6273816;28;20680;-63
2021/06/10 12:57:00;;;;;;;8.53;7.93;;;23.80;92.20;;;;;;6274718;28;20243;-63
2021/06/10 13:00:07;;;;;;;9.87;8.87;;;23.60;93.50;;;;;;6273731;28;20237;-63
2021/06/10 13:03:10;;;;;;;9.00;8.20;;;23.50;93.90;;;;;;6265856;28;20249;-63
2021/06/10 13:06:13;;;;;;;17.97;16.13;;;23.40;94.30;;;;;;6269171;28;20677;-64
2021/06/10 13:09:25;;;;;;;8.83;8.13;;;23.40;93.70;;;;;;6274343;28;20254;-63
2021/06/10 13:12:29;;;;;;;8.90;7.93;;;23.20;95.40;;;;;;6273903;28;20568;-64
2021/06/10 13:15:33;;;;;;;7.37;6.67;;;23.30;95.00;;;;;;6274374;28;20237;-63
2021/06/10 13:18:36;;;;;;;8.37;7.40;;;23.70;94.60;;;;;;6274033;28;20238;-64
2021/06/10 13:21:40;;;;;;;7.53;6.93;;;23.90;94.60;;;;;;6276575;28;20255;-62
2021/06/10 13:24:50;;;;;;;6.70;6.10;;;24.00;92.60;;;;;;6278537;28;20218;-62
2021/06/10 13:28:08;;;;;;;7.53;6.93;;;24.20;92.20;;;;;;6278358;28;20250;-62
2021/06/10 13:31:23;;;;;;;7.00;6.40;;;24.40;92.30;;;;;;6278031;28;20223;-62
2021/06/10 13:34:34;;;;;;;7.70;7.10;;;24.60;92.50;;;;;;6278422;28;20224;-63
2021/06/10 13:37:36;;;;;;;6.83;6.27;;;24.60;92.60;;;;;;6277960;28;20236;-63
2021/06/10 13:40:41;;;;;;;7.77;7.17;;;24.40;91.60;;;;;;6278185;28;20231;-62
2021/06/10 13:43:48;;;;;;;7.00;6.50;;;24.30;91.60;;;;;;6277759;28;20676;-62
2021/06/10 13:46:53;;;;;;;7.30;6.70;;;24.20;91.00;;;;;;6278114;28;20243;-65
2021/06/10 13:50:00;;;;;;;10.37;9.50;;;24.30;92.20;;;;;;6277912;28;20231;-64
2021/06/10 13:53:02;;;;;;;8.10;7.40;;;24.40;92.70;;;;;;6277933;28;20227;-63
2021/06/10 13:56:07;;;;;;;8.70;7.90;;;24.50;92.00;;;;;;6277786;28;20239;-64
2021/06/10 13:59:09;;;;;;;7.80;7.07;;;24.70;92.30;;;;;;6277951;28;20232;-63
2021/06/10 14:02:12;;;;;;;7.43;6.93;;;24.80;91.70;;;;;;6277594;28;20228;-63
2021/06/10 14:05:15;;;;;;;7.90;7.20;;;25.00;90.90;;;;;;6277707;28;20231;-63
2021/06/10 14:08:18;;;;;;;7.77;7.07;;;24.90;91.10;;;;;;6277812;28;20243;-64
2021/06/10 14:11:22;;;;;;;8.37;7.50;;;25.00;90.90;;;;;;6277761;28;20231;-63
2021/06/10 14:14:25;;;;;;;7.67;7.07;;;25.00;88.70;;;;;;6277473;28;20314;-62
2021/06/10 14:17:28;;;;;;;7.90;6.57;;;25.00;87.50;;;;;;6277134;28;20235;-63
2021/06/10 14:20:31;;;;;;;7.63;6.97;;;24.90;86.90;;;;;;6277342;28;20338;-63
2021/06/10 14:23:34;;;;;;;7.27;6.67;;;24.90;85.90;;;;;;6276795;28;20240;-64
2021/06/10 14:26:38;;;;;;;7.97;7.37;;;25.00;85.20;;;;;;6276926;28;20600;-63
2021/06/10 14:29:44;;;;;;;7.80;7.20;;;25.00;83.60;;;;;;6276784;28;20235;-63
2021/06/10 14:32:47;;;;;;;7.90;7.30;;;25.10;83.90;;;;;;6276599;28;20562;-63
2021/06/10 14:35:49;;;;;;;6.70;6.20;;;25.20;83.40;;;;;;6276554;28;20228;-63
2021/06/10 14:38:53;;;;;;;6.50;6.10;;;25.20;80.80;;;;;;6276816;28;20243;-62
2021/06/10 14:41:57;;;;;;;6.20;5.80;;;25.20;79.10;;;;;;6276653;28;20700;-63
2021/06/10 14:45:00;;;;;;;6.23;5.83;;;25.20;77.80;;;;;;6277140;28;20239;-63
2021/06/10 14:48:05;;;;;;;7.53;6.97;;;25.20;75.60;;;;;;6276780;28;20254;-61
2021/06/10 14:51:08;;;;;;;7.93;6.40;;;25.30;76.70;;;;;;6276529;28;20227;-61
2021/06/10 14:54:11;;;;;;;6.80;6.20;;;25.40;77.40;;;;;;6276956;28;20230;-61
2021/06/10 14:57:15;;;;;;;5.90;5.30;;;25.40;76.70;;;;;;6276129;28;20239;-61
2021/06/10 15:00:18;;;;;;;8.90;8.10;;;25.60;74.50;;;;;;6276419;28;20680;-61
2021/06/10 15:03:21;;;;;;;7.63;6.93;;;25.70;76.40;;;;;;6275917;28;20317;-61
2021/06/10 15:06:28;;;;;;;11.10;10.20;;;25.80;76.80;;;;;;6276111;28;20227;-62
2021/06/10 15:09:31;;;;;;;11.37;10.47;;;26.00;76.30;;;;;;6275939;28;20231;-62
2021/06/10 15:12:35;;;;;;;6.70;6.20;;;26.20;74.20;;;;;;6266861;28;20558;-62
2021/06/10 15:15:39;;;;;;;6.73;6.23;;;26.30;71.50;;;;;;6275390;28;20564;-63
2021/06/10 15:18:41;;;;;;;6.60;5.90;;;26.30;70.80;;;;;;6275996;28;20257;-60
2021/06/10 15:21:44;;;;;;;6.23;5.73;;;26.20;71.20;;;;;;6275985;28;20199;-61
2021/06/10 15:24:47;;;;;;;9.87;8.97;;;26.10;70.10;;;;;;6276117;28;20203;-61
2021/06/10 15:27:52;;;;;;;7.10;6.50;;;26.20;70.50;;;;;;6275069;28;20235;-62
2021/06/10 15:30:55;;;;;;;7.20;6.70;;;26.20;70.30;;;;;;6276536;28;20214;-62
2021/06/10 15:33:58;;;;;;;6.30;5.80;;;26.10;69.40;;;;;;6275598;28;20230;-64
2021/06/10 15:37:00;;;;;;;6.50;5.80;;;26.10;71.20;;;;;;6275044;28;20238;-62
2021/06/10 15:40:04;;;;;;;6.43;6.00;;;26.00;71.10;;;;;;6275734;28;20252;-62
2021/06/10 15:43:08;;;;;;;7.70;7.10;;;26.00;75.70;;;;;;6274156;28;20246;-62
2021/06/10 15:46:11;;;;;;;6.67;6.17;;;25.80;80.40;;;;;;6275092;28;20234;-62
2021/06/10 15:49:15;;;;;;;4.53;4.20;;;25.50;83.30;;;;;;6274766;28;20239;-62
2021/06/10 15:52:19;;;;;;;4.80;4.40;;;25.00;79.80;;;;;;6275451;28;20255;-62
2021/06/10 15:55:22;;;;;;;4.90;4.40;;;24.60;81.30;;;;;;6274848;28;20723;-62
2021/06/10 15:58:26;;;;;;;4.23;3.93;;;24.20;84.10;;;;;;6275725;28;20246;-62
2021/06/10 16:01:29;;;;;;;3.60;3.30;;;23.60;70.90;;;;;;6274625;28;20576;-62
2021/06/10 16:04:32;;;;;;;4.60;4.30;;;23.40;78.20;;;;;;6274951;28;20238;-62
2021/06/10 16:07:35;;;;;;;4.93;4.53;;;23.40;81.60;;;;;;6274330;28;20616;-62
2021/06/10 16:10:38;;;;;;;5.10;4.70;;;23.50;90.10;;;;;;6274995;28;20234;-62